Time;durP1;ratioP1;P1;durP2;ratioP2;P2;SDS_P1;SDS_P2;PMS_P1;PMS_P2;Temp;Humidity;BMP_temperature;BMP_pressure;BME280_temperature;BME280_humidity;BME280_pressure;Samples;Min_cycle;Max_cycle;Signal;HPM_P1;HPM_P2
2022/04/20 00:01:35;;;;;;;5.43;3.47;;;;;;;11.02;48.03;101442.25;4951992;28;20079;-78
2022/04/20 00:04:01;;;;;;;4.25;3.45;;;;;;;10.94;48.32;101445.41;4950810;29;20031;-78
2022/04/20 00:06:30;;;;;;;5.63;3.50;;;;;;;10.95;48.46;101447.09;4950437;28;20086;-78
2022/04/20 00:08:55;;;;;;;8.18;3.60;;;;;;;10.93;48.29;101456.03;4949576;29;20035;-78
2022/04/20 00:11:20;;;;;;;5.78;3.53;;;;;;;10.89;48.48;101454.53;4950670;28;20030;-78
2022/04/20 00:13:46;;;;;;;4.95;3.60;;;;;;;10.79;48.64;101438.47;4949606;29;20467;-77
2022/04/20 00:16:11;;;;;;;4.20;3.45;;;;;;;10.82;48.45;101448.00;4949781;28;20058;-74
2022/04/20 00:18:36;;;;;;;5.15;3.30;;;;;;;10.79;48.53;101448.16;4965440;28;20122;-78
2022/04/20 00:21:02;;;;;;;4.90;3.50;;;;;;;10.77;48.50;101445.63;4950001;29;20387;-77
2022/04/20 00:23:27;;;;;;;5.25;3.38;;;;;;;10.74;49.04;101450.25;4951038;28;20086;-74
2022/04/20 00:25:52;;;;;;;6.00;3.20;;;;;;;10.73;48.61;101459.09;4952817;29;20468;-77
2022/04/20 00:28:18;;;;;;;3.65;3.33;;;;;;;10.66;49.17;101454.25;4953944;28;20035;-80
2022/04/20 00:30:43;;;;;;;5.10;3.42;;;;;;;10.65;49.25;101457.81;4954258;28;20035;-77
2022/04/20 00:33:08;;;;;;;4.22;3.83;;;;;;;10.64;48.94;101460.53;4951752;29;20050;-77
2022/04/20 00:35:34;;;;;;;4.20;3.58;;;;;;;10.60;49.29;101459.06;4953640;29;20055;-77
2022/04/20 00:37:59;;;;;;;5.45;3.85;;;;;;;10.58;49.15;101461.78;4954248;28;20034;-78
2022/04/20 00:40:25;;;;;;;6.93;3.53;;;;;;;10.49;49.24;101445.75;4968862;28;20030;-78
2022/04/20 00:42:51;;;;;;;3.95;3.47;;;;;;;10.52;49.56;101467.44;4951992;29;20391;-78
2022/04/20 00:45:16;;;;;;;4.45;3.78;;;;;;;10.50;49.30;101463.22;4953889;29;20030;-78
2022/04/20 00:47:46;;;;;;;7.35;3.55;;;;;;;10.46;50.11;101467.84;4953865;29;20027;-78
2022/04/20 00:50:12;;;;;;;5.90;3.70;;;;;;;10.43;49.87;101468.03;4964043;28;20039;-79
2022/04/20 00:52:38;;;;;;;4.90;3.83;;;;;;;10.38;50.08;101472.72;4954615;28;20031;-77
2022/04/20 00:55:06;;;;;;;4.45;3.70;;;;;;;10.34;50.25;101473.84;4953251;28;20094;-79
2022/04/20 00:57:31;;;;;;;6.47;4.47;;;;;;;10.24;50.43;101460.44;4955109;28;20407;-79
2022/04/20 01:00:00;;;;;;;5.88;4.18;;;;;;;10.26;50.46;101471.72;4952870;29;20102;-80
2022/04/20 01:02:27;;;;;;;5.70;4.13;;;;;;;10.26;50.54;101471.72;4953480;28;20062;-79
2022/04/20 01:04:53;;;;;;;4.90;4.10;;;;;;;10.24;50.40;101467.50;4952744;29;20034;-79
2022/04/20 01:07:18;;;;;;;5.18;3.85;;;;;;;10.20;50.12;101461.59;4948723;29;20058;-79
2022/04/20 01:09:46;;;;;;;5.63;3.92;;;;;;;10.15;50.64;101468.03;4953307;28;20065;-79
2022/04/20 01:12:13;;;;;;;5.40;4.05;;;;;;;10.14;50.79;101471.59;4952460;29;20035;-79
2022/04/20 01:14:40;;;;;;;5.18;3.97;;;;;;;10.05;51.03;101473.88;4954396;29;20360;-79
2022/04/20 01:17:07;;;;;;;6.03;3.60;;;;;;;10.01;51.36;101472.38;4953087;29;20399;-79
2022/04/20 01:19:40;;;;;;;4.35;3.90;;;;;;;9.97;51.55;101478.72;4953196;29;20031;-79
2022/04/20 01:22:07;;;;;;;5.30;4.13;;;;;;;9.94;51.62;101476.28;4950918;29;20027;-79
2022/04/20 01:24:35;;;;;;;7.57;4.00;;;;;;;9.87;51.26;101469.72;4949451;29;20026;-79
2022/04/20 01:27:02;;;;;;;8.20;4.30;;;;;;;9.86;51.47;101470.66;4952931;29;20125;-79
2022/04/20 01:29:28;;;;;;;5.72;4.18;;;;;;;9.82;51.67;101471.78;4952618;28;20035;-79
2022/04/20 01:31:55;;;;;;;5.78;4.22;;;;;;;9.79;51.70;101477.25;4952218;28;20042;-79
2022/04/20 01:34:20;;;;;;;6.20;4.13;;;;;;;9.77;51.80;101473.88;4951639;28;20515;-79
2022/04/20 01:36:46;;;;;;;6.28;4.35;;;;;;;9.72;52.01;101475.94;4953172;29;20027;-79
2022/04/20 01:39:13;;;;;;;7.00;4.30;;;;;;;9.71;51.82;101480.34;4951134;28;20491;-79
2022/04/20 01:41:42;;;;;;;6.13;4.22;;;;;;;9.66;51.94;101476.28;4952880;29;20031;-79
2022/04/20 01:44:08;;;;;;;5.13;4.07;;;;;;;9.61;51.91;101478.34;4951330;28;20046;-79
2022/04/20 01:46:33;;;;;;;7.53;4.47;;;;;;;9.58;52.16;101475.88;4951767;29;20488;-79
2022/04/20 01:48:59;;;;;;;6.60;4.35;;;;;;;9.55;52.19;101471.66;4952712;29;20458;-79
2022/04/20 01:54:11;;;;;;;5.65;4.20;;;;;;;9.49;52.40;101469.41;4951849;29;20085;-76
2022/04/20 01:56:36;;;;;;;8.63;4.55;;;;;;;9.47;52.11;101473.06;4968133;28;20059;-79
2022/04/20 01:59:02;;;;;;;6.78;4.63;;;;;;;9.43;52.54;101472.41;4952408;28;20555;-79
2022/04/20 02:04:12;;;;;;;10.57;4.93;;;;;;;9.37;52.76;101470.97;4945374;29;20123;-80
2022/04/20 02:06:38;;;;;;;6.63;4.70;;;;;;;9.34;52.19;101473.78;4951723;29;20114;-79
2022/04/20 02:09:06;;;;;;;7.97;4.72;;;;;;;9.29;52.78;101473.22;4952611;28;20497;-79
2022/04/20 02:11:32;;;;;;;7.35;4.90;;;;;;;9.24;53.10;101480.53;4952593;28;20049;-79
2022/04/20 02:13:59;;;;;;;6.45;4.50;;;;;;;9.22;52.74;101477.16;4949321;29;20446;-79
2022/04/20 02:16:24;;;;;;;5.95;4.65;;;;;;;9.20;52.76;101473.72;4952128;29;20081;-79
2022/04/20 02:18:50;;;;;;;11.00;4.47;;;;;;;9.16;52.87;101477.47;4951317;29;20054;-79
2022/04/20 02:21:16;;;;;;;6.53;4.78;;;;;;;9.11;53.19;101474.28;4950973;29;20054;-79
2022/04/20 02:23:41;;;;;;;6.78;4.60;;;;;;;9.06;53.47;101468.44;4948926;29;20554;-79
2022/04/20 02:26:12;;;;;;;7.32;5.00;;;;;;;9.00;53.34;101471.44;4950339;29;20082;-79
2022/04/20 02:28:37;;;;;;;6.03;4.90;;;;;;;8.98;53.54;101468.03;4952143;28;20035;-79
2022/04/20 02:31:02;;;;;;;5.70;4.88;;;;;;;8.96;53.27;101469.91;4952182;29;20034;-79
2022/04/20 02:33:28;;;;;;;6.63;4.82;;;;;;;8.92;53.53;101471.03;4950599;29;20122;-79
2022/04/20 02:35:58;;;;;;;7.30;4.93;;;;;;;8.87;53.61;101473.06;4950780;29;20117;-79
2022/04/20 02:38:23;;;;;;;5.97;4.82;;;;;;;8.83;53.86;101471.56;4950892;28;20242;-80
2022/04/20 02:40:51;;;;;;;7.45;5.07;;;;;;;8.77;53.98;101465.69;4946606;29;20468;-76
2022/04/20 02:43:16;;;;;;;5.30;4.80;;;;;;;8.73;54.16;101468.56;4951396;29;20111;-78
2022/04/20 02:45:42;;;;;;;8.25;5.05;;;;;;;8.70;54.10;101469.59;4950987;28;20106;-78
2022/04/20 02:48:12;;;;;;;7.28;5.28;;;;;;;8.67;53.96;101482.88;4949741;28;20117;-78
2022/04/20 02:50:38;;;;;;;11.02;5.13;;;;;;;8.62;54.17;101477.06;4952097;29;20019;-78
2022/04/20 02:53:04;;;;;;;6.65;4.70;;;;;;;8.56;53.85;101477.41;4951886;28;20043;-78
2022/04/20 02:55:29;;;;;;;6.93;5.10;;;;;;;8.56;54.40;101477.41;4950757;29;20110;-77
2022/04/20 02:57:54;;;;;;;6.25;5.28;;;;;;;8.54;54.30;101489.75;4949813;29;20019;-75
2022/04/20 03:00:20;;;;;;;6.90;5.30;;;;;;;8.51;54.45;101489.94;4949907;29;20503;-75
2022/04/20 03:02:46;;;;;;;7.32;4.90;;;;;;;8.49;54.66;101481.31;4949504;29;20066;-78
2022/04/20 03:05:11;;;;;;;6.93;5.30;;;;;;;8.46;54.31;101481.47;4963044;28;20015;-78
2022/04/20 03:07:37;;;;;;;6.18;5.20;;;;;;;8.42;53.72;101485.19;4952379;28;20567;-78
2022/04/20 03:10:04;;;;;;;7.32;4.95;;;;;;;8.39;53.98;101491.41;4950633;28;20023;-78
2022/04/20 03:12:29;;;;;;;6.85;5.10;;;;;;;8.35;54.26;101489.91;4951931;29;20486;-78
2022/04/20 03:14:55;;;;;;;7.88;5.30;;;;;;;8.35;54.34;101483.81;4982762;28;20038;-78
2022/04/20 03:17:24;;;;;;;8.18;5.18;;;;;;;8.29;54.66;101484.97;4950532;28;20030;-78
2022/04/20 03:19:50;;;;;;;7.68;4.82;;;;;;;8.27;54.83;101488.59;4951504;28;20042;-78
2022/04/20 03:22:21;;;;;;;5.65;4.85;;;;;;;8.23;54.50;101485.28;4950708;28;20023;-78
2022/04/20 03:24:47;;;;;;;7.72;5.35;;;;;;;8.18;54.84;101488.16;4950050;28;20115;-77
2022/04/20 03:27:13;;;;;;;9.55;5.10;;;;;;;8.19;55.02;101491.63;4950872;29;20055;-77
2022/04/20 03:29:40;;;;;;;8.43;5.10;;;;;;;8.15;54.84;101501.44;4950238;29;20065;-78
2022/04/20 03:32:12;;;;;;;8.23;5.28;;;;;;;8.11;54.90;101491.22;4950741;28;20464;-78
2022/04/20 03:34:39;;;;;;;8.88;4.80;;;;;;;8.09;54.92;101499.16;4950557;28;20043;-78
2022/04/20 03:37:05;;;;;;;7.70;5.07;;;;;;;8.09;55.00;101503.53;4950108;28;20035;-74
2022/04/20 03:39:32;;;;;;;6.97;5.20;;;;;;;8.04;54.85;101506.41;4950842;28;20062;-77
2022/04/20 03:41:59;;;;;;;10.00;5.47;;;;;;;8.03;55.01;101501.25;4950351;28;20035;-77
2022/04/20 03:44:26;;;;;;;6.22;5.07;;;;;;;7.99;55.53;101507.56;4948601;29;20027;-78
2022/04/20 03:46:52;;;;;;;7.55;5.05;;;;;;;7.99;55.53;101505.78;4950560;28;20355;-78
2022/04/20 03:49:18;;;;;;;6.68;5.05;;;;;;;7.94;55.25;101506.94;4950006;28;20495;-78
2022/04/20 03:51:45;;;;;;;9.48;5.50;;;;;;;7.94;55.36;101509.56;4949581;29;20506;-78
2022/04/20 03:54:10;;;;;;;5.75;5.22;;;;;;;7.88;55.42;101500.25;4950232;29;20485;-78
2022/04/20 03:59:19;;;;;;;6.85;5.25;;;;;;;7.84;55.52;101509.22;4943716;29;20152;-78
2022/04/20 04:01:50;;;;;;;8.68;5.10;;;;;;;7.83;55.14;101512.75;4946272;29;20499;-78
2022/04/20 04:04:15;;;;;;;9.88;5.22;;;;;;;7.81;55.82;101519.84;4950600;28;20034;-78
2022/04/20 04:06:41;;;;;;;8.98;5.15;;;;;;;7.77;55.91;101513.94;4949251;29;20031;-78
2022/04/20 04:09:08;;;;;;;6.38;5.35;;;;;;;7.74;55.49;101508.84;4948443;29;20035;-78
2022/04/20 04:11:33;;;;;;;7.70;5.30;;;;;;;7.74;56.09;101519.31;4950239;29;20480;-78
2022/04/20 04:13:59;;;;;;;8.25;5.22;;;;;;;7.73;56.22;101517.63;4950263;28;20054;-78
2022/04/20 04:16:24;;;;;;;8.25;5.72;;;;;;;7.68;56.37;101513.56;4945263;28;20030;-78
2022/04/20 04:18:49;;;;;;;9.63;5.38;;;;;;;7.70;56.09;101524.81;4950671;29;20537;-77
2022/04/20 04:21:17;;;;;;;9.07;5.13;;;;;;;7.67;56.16;101528.44;4950482;28;20024;-78
2022/04/20 04:23:42;;;;;;;10.60;5.40;;;;;;;7.66;56.53;101531.13;4950344;28;20039;-77
2022/04/20 04:26:09;;;;;;;11.50;5.90;;;;;;;7.60;56.30;101526.16;4949095;29;20034;-78
2022/04/20 04:28:35;;;;;;;8.25;5.53;;;;;;;7.56;56.77;101522.88;4950238;28;20035;-78
2022/04/20 04:31:00;;;;;;;10.50;5.68;;;;;;;7.55;56.89;101529.03;4949173;29;20035;-77
2022/04/20 04:33:26;;;;;;;7.38;5.47;;;;;;;7.55;56.49;101537.72;4944468;29;20032;-78
2022/04/20 04:35:51;;;;;;;11.82;5.82;;;;;;;7.58;56.23;101538.50;4949208;29;20453;-78
2022/04/20 04:38:16;;;;;;;12.88;5.93;;;;;;;7.55;56.75;101545.59;4949658;28;20342;-77
2022/04/20 04:40:42;;;;;;;9.98;5.55;;;;;;;7.52;56.58;101547.50;4947367;28;20035;-77
2022/04/20 04:43:07;;;;;;;10.57;5.63;;;;;;;7.50;56.75;101547.59;4949094;28;20102;-77
2022/04/20 04:48:36;;;;;;;8.05;5.38;;;;;;;7.45;57.63;101552.22;4949567;29;20464;-78
2022/04/20 04:51:06;;;;;;;8.48;5.57;;;;;;;7.47;56.73;101555.59;4947603;29;20031;-77
2022/04/20 04:53:31;;;;;;;9.75;5.80;;;;;;;7.45;56.92;101557.44;4950211;29;20049;-80
2022/04/20 04:55:56;;;;;;;8.70;5.55;;;;;;;7.44;57.11;101561.00;4948294;29;20031;-78
2022/04/20 04:58:26;;;;;;;8.57;5.95;;;;;;;7.43;56.75;101567.16;4948232;28;20031;-78
2022/04/20 05:00:52;;;;;;;8.50;5.60;;;;;;;7.42;57.04;101568.06;4947271;28;20126;-79
2022/04/20 05:03:17;;;;;;;7.15;5.50;;;;;;;7.42;57.23;101562.00;4948822;29;20114;-78
2022/04/20 05:05:43;;;;;;;11.40;5.60;;;;;;;7.37;57.44;101564.84;4948543;29;20035;-78
2022/04/20 05:08:09;;;;;;;9.27;6.10;;;;;;;7.37;57.33;101562.22;4948835;29;20038;-78
2022/04/20 05:10:35;;;;;;;6.95;5.68;;;;;;;7.35;57.53;101558.84;4951373;28;20380;-78
2022/04/20 05:13:01;;;;;;;8.15;6.15;;;;;;;7.32;57.80;101558.97;4952191;29;20031;-78
2022/04/20 05:15:27;;;;;;;9.63;5.95;;;;;;;7.33;57.47;101559.81;4952304;29;20031;-78
2022/04/20 05:17:52;;;;;;;15.27;6.00;;;;;;;7.30;57.85;101554.75;4951795;29;20530;-78
2022/04/20 05:20:19;;;;;;;8.80;5.90;;;;;;;7.30;58.12;101560.81;4952577;28;20053;-78
2022/04/20 05:22:45;;;;;;;8.32;6.25;;;;;;;7.29;57.44;101561.75;4950780;29;20030;-78
2022/04/20 05:25:14;;;;;;;8.82;5.78;;;;;;;7.31;57.67;101561.69;4950356;29;20027;-77
2022/04/20 05:27:39;;;;;;;8.45;6.03;;;;;;;7.29;57.36;101567.00;4952737;28;20035;-78
2022/04/20 05:30:06;;;;;;;11.88;6.18;;;;;;;7.31;57.71;101562.53;4949455;29;20090;-78
2022/04/20 05:32:32;;;;;;;9.02;5.82;;;;;;;7.31;58.17;101570.38;4965929;28;20388;-78
2022/04/20 05:34:57;;;;;;;7.32;5.85;;;;;;;7.34;58.02;101577.22;4952135;28;20020;-78
2022/04/20 05:42:59;;;;;;;11.75;6.72;;;;;;;7.39;57.67;101580.47;4951838;29;19928;-78
2022/04/20 05:45:25;;;;;;;12.50;6.35;;;;;;;7.41;58.20;101589.94;4951151;28;20027;-79
2022/04/20 05:47:50;;;;;;;11.82;6.07;;;;;;;7.45;57.78;101585.41;4953730;28;20027;-78
2022/04/20 05:50:16;;;;;;;11.02;6.05;;;;;;;7.44;57.98;101575.84;4950229;29;20648;-78
2022/04/20 05:52:45;;;;;;;7.60;5.85;;;;;;;7.49;57.73;101582.56;4951579;28;20129;-77
2022/04/20 05:55:11;;;;;;;8.30;6.03;;;;;;;7.53;57.94;101584.09;4950642;29;20050;-78
2022/04/20 05:57:37;;;;;;;9.52;6.43;;;;;;;7.57;57.50;101583.94;4951927;29;20534;-78
2022/04/20 06:00:04;;;;;;;10.63;6.25;;;;;;;7.58;57.17;101583.88;4952725;29;20079;-78
2022/04/20 06:02:33;;;;;;;10.90;6.38;;;;;;;7.61;57.96;101581.13;4935597;29;20050;-78
2022/04/20 06:04:58;;;;;;;9.75;6.55;;;;;;;7.66;58.00;101578.28;4951696;28;20377;-78
2022/04/20 06:07:29;;;;;;;9.98;6.65;;;;;;;7.69;57.46;101573.72;4935438;29;20035;-77
2022/04/20 06:09:55;;;;;;;8.00;6.13;;;;;;;7.76;57.91;101576.88;4952529;29;20031;-78
2022/04/20 06:12:20;;;;;;;9.15;6.60;;;;;;;7.80;58.20;101576.63;4950144;29;20058;-77
2022/04/20 06:14:46;;;;;;;10.60;6.40;;;;;;;7.86;57.87;101576.31;4950368;28;20390;-77
2022/04/20 06:17:13;;;;;;;8.10;6.18;;;;;;;7.92;57.54;101575.16;4951942;28;20031;-77
2022/04/20 06:19:38;;;;;;;7.75;6.55;;;;;;;7.96;57.47;101576.69;4951079;29;20050;-77
2022/04/20 06:22:04;;;;;;;7.82;6.30;;;;;;;8.05;57.49;101581.47;4951222;28;20483;-76
2022/04/20 06:24:29;;;;;;;11.13;6.32;;;;;;;8.11;57.17;101582.94;4952033;28;20047;-76
2022/04/20 06:26:54;;;;;;;11.10;6.43;;;;;;;8.18;57.13;101592.16;4950935;29;20019;-76
2022/04/20 06:29:20;;;;;;;9.18;5.68;;;;;;;8.25;57.15;101584.81;4951222;29;20046;-77
2022/04/20 06:31:45;;;;;;;8.75;6.03;;;;;;;8.30;56.58;101593.28;4982354;28;20031;-74
2022/04/20 06:34:11;;;;;;;7.00;5.72;;;;;;;8.38;56.46;101593.75;4950856;28;20023;-75
2022/04/20 06:36:36;;;;;;;8.77;5.75;;;;;;;8.43;56.95;101581.28;4951283;29;20059;-78
2022/04/20 06:39:02;;;;;;;11.45;6.07;;;;;;;8.52;56.22;101590.44;4951414;29;20054;-75
2022/04/20 06:41:27;;;;;;;9.60;6.85;;;;;;;8.59;56.17;101587.41;4950734;29;20446;-75
2022/04/20 06:43:53;;;;;;;9.25;6.13;;;;;;;8.67;56.30;101590.44;4951463;28;20106;-75
2022/04/20 06:46:18;;;;;;;6.90;5.68;;;;;;;8.74;55.85;101597.03;4910945;28;20031;-74
2022/04/20 06:48:44;;;;;;;9.77;5.90;;;;;;;8.82;55.11;101593.19;4891882;28;20043;-76
2022/04/20 06:51:09;;;;;;;8.48;6.47;;;;;;;8.88;55.38;101587.59;4943826;28;20067;-76
2022/04/20 06:58:53;;;;;;;8.90;6.30;;;;;;;9.18;55.46;101585.88;4948970;28;20346;-75
2022/04/20 07:01:18;;;;;;;7.97;6.20;;;;;;;9.27;55.25;101590.63;4966969;28;20156;-75
2022/04/20 07:03:44;;;;;;;9.15;6.18;;;;;;;9.28;54.66;101568.69;4929850;29;20038;-75
2022/04/20 07:06:10;;;;;;;11.38;6.10;;;;;;;9.44;54.28;101587.03;4952900;28;20130;-75
2022/04/20 07:08:36;;;;;;;11.38;6.13;;;;;;;9.53;54.38;101586.50;4952367;28;20031;-76
2022/04/20 07:11:03;;;;;;;7.75;6.10;;;;;;;9.62;53.98;101582.50;4960472;28;20031;-75
2022/04/20 07:13:29;;;;;;;11.38;5.93;;;;;;;9.71;53.34;101582.81;4967518;28;20413;-75
2022/04/20 07:15:54;;;;;;;10.40;6.13;;;;;;;9.82;53.33;101584.81;4956595;28;20030;-75
2022/04/20 07:18:21;;;;;;;11.25;6.03;;;;;;;9.92;52.46;101585.09;4966353;28;20035;-75
2022/04/20 07:20:47;;;;;;;9.13;5.60;;;;;;;10.02;52.62;101584.50;4957960;28;20520;-75
2022/04/20 07:23:13;;;;;;;7.88;5.38;;;;;;;10.18;52.99;101581.78;4948266;28;20534;-75
2022/04/20 07:25:39;;;;;;;7.68;5.50;;;;;;;10.29;52.69;101582.00;4975808;28;20031;-74
2022/04/20 07:28:06;;;;;;;11.85;5.75;;;;;;;10.42;52.42;101586.53;4959151;28;20023;-74
2022/04/20 07:30:32;;;;;;;8.05;5.15;;;;;;;10.51;52.19;101580.69;4955256;28;20089;-74
2022/04/20 07:32:58;;;;;;;8.30;5.45;;;;;;;10.62;51.78;101584.34;4954244;28;20034;-75
2022/04/20 07:35:24;;;;;;;9.73;5.75;;;;;;;10.73;51.70;101585.44;4959481;28;20296;-75
2022/04/20 07:37:49;;;;;;;6.63;5.10;;;;;;;10.84;51.54;101590.91;4960405;28;20062;-75
2022/04/20 07:40:15;;;;;;;6.50;5.20;;;;;;;10.94;50.86;101590.22;4958172;28;20091;-74
2022/04/20 07:42:41;;;;;;;8.07;5.70;;;;;;;11.09;50.39;101585.75;4961772;28;20037;-74
2022/04/20 07:45:08;;;;;;;8.13;5.38;;;;;;;11.22;50.38;101594.56;4968109;28;20042;-74
2022/04/20 07:47:33;;;;;;;7.50;4.78;;;;;;;11.33;49.76;101595.66;4959848;28;20027;-75
2022/04/20 07:52:45;;;;;;;12.00;5.20;;;;;;;11.58;49.24;101595.72;4960923;28;20108;-74
2022/04/20 07:55:15;;;;;;;7.60;5.03;;;;;;;11.73;48.59;101605.25;4960561;28;20030;-74
2022/04/20 07:57:44;;;;;;;5.45;4.63;;;;;;;11.88;49.00;101603.41;4953559;28;20030;-74
2022/04/20 08:00:12;;;;;;;8.48;5.15;;;;;;;12.03;48.13;101597.13;4955018;28;20038;-74
2022/04/20 08:02:38;;;;;;;8.13;4.60;;;;;;;12.16;48.27;101594.47;4962000;28;20383;-74
2022/04/20 08:05:06;;;;;;;6.28;4.88;;;;;;;12.27;47.75;101597.22;4950748;28;20038;-74
2022/04/20 08:07:33;;;;;;;7.18;4.95;;;;;;;12.41;46.96;101597.13;4958058;28;20098;-74
2022/04/20 08:09:58;;;;;;;6.75;4.50;;;;;;;12.51;45.62;101586.75;4965608;28;20055;-74
2022/04/20 08:12:28;;;;;;;7.88;5.20;;;;;;;12.65;45.49;101593.69;4955117;28;20102;-75
2022/04/20 08:14:54;;;;;;;9.65;4.53;;;;;;;12.77;45.26;101598.94;4965677;28;20275;-75
2022/04/20 08:17:19;;;;;;;9.10;4.88;;;;;;;12.89;45.08;101599.03;4952944;28;20023;-75
2022/04/20 08:19:45;;;;;;;8.48;4.50;;;;;;;13.03;45.12;101597.09;4967977;28;20023;-75
2022/04/20 08:22:12;;;;;;;6.68;4.82;;;;;;;13.17;44.71;101601.41;4954844;28;20460;-75
2022/04/20 08:24:38;;;;;;;6.45;5.18;;;;;;;13.27;43.87;101593.66;4967477;28;20475;-75
2022/04/20 08:27:07;;;;;;;7.40;4.95;;;;;;;13.39;43.70;101598.88;4955063;28;20047;-75
2022/04/20 08:29:33;;;;;;;7.55;4.78;;;;;;;13.52;43.64;101601.44;4966180;28;20421;-75
2022/04/20 08:31:58;;;;;;;7.05;4.72;;;;;;;13.60;43.32;101591.16;4956363;28;20015;-75
2022/04/20 08:34:23;;;;;;;6.93;4.78;;;;;;;13.74;42.83;101596.25;4942267;28;20075;-75
2022/04/20 08:36:49;;;;;;;6.53;5.20;;;;;;;13.92;43.49;101598.47;4963858;28;20029;-75
2022/04/20 08:39:14;;;;;;;13.07;4.88;;;;;;;13.99;42.56;101594.38;4965069;28;20210;-75
2022/04/20 08:41:40;;;;;;;8.30;4.55;;;;;;;14.13;42.72;101596.84;4953018;28;20042;-75
2022/04/20 08:44:07;;;;;;;12.45;5.13;;;;;;;14.22;42.72;101590.81;4968868;28;20451;-75
2022/04/20 08:46:39;;;;;;;11.32;5.18;;;;;;;14.33;42.03;101596.13;4954528;29;20103;-75
2022/04/20 08:49:04;;;;;;;12.30;5.17;;;;;;;14.47;43.26;101595.09;4964699;28;20081;-75
2022/04/20 08:52:37;;;;;;;8.10;5.13;;;;;;;14.55;42.10;101597.13;4950586;28;20035;-75
2022/04/20 08:54:18;;;;;;;8.73;4.85;;;;;;;14.63;41.38;101590.28;4953950;29;20039;-75
2022/04/20 08:59:29;;;;;;;10.23;5.40;;;;;;;14.91;41.83;101588.06;4954721;29;20062;-75
2022/04/20 09:02:00;;;;;;;5.85;5.15;;;;;;;14.94;39.66;101582.53;4984878;28;20455;-75
2022/04/20 09:04:27;;;;;;;6.97;4.82;;;;;;;15.11;40.36;101584.66;4953412;29;20399;-75
2022/04/20 09:06:54;;;;;;;7.57;5.32;;;;;;;15.19;39.51;101587.50;4954233;29;20027;-75
2022/04/20 09:09:23;;;;;;;16.75;5.30;;;;;;;15.27;39.46;101590.41;4947957;29;20029;-75
2022/04/20 09:11:49;;;;;;;7.80;5.25;;;;;;;15.32;38.44;101582.06;4954302;29;20337;-75
2022/04/20 09:14:16;;;;;;;6.15;4.85;;;;;;;15.40;38.15;101587.56;4954162;29;20023;-75
2022/04/20 09:16:43;;;;;;;9.30;4.97;;;;;;;15.56;38.79;101580.03;4954739;29;20031;-75
2022/04/20 09:19:08;;;;;;;8.38;5.47;;;;;;;15.63;38.34;101581.25;4954454;29;20027;-75
2022/04/20 09:21:34;;;;;;;8.32;4.40;;;;;;;15.66;37.93;101580.16;4954501;29;20077;-75
2022/04/20 09:24:07;;;;;;;7.40;4.97;;;;;;;15.77;38.13;101577.44;4949900;29;20059;-75
2022/04/20 09:26:32;;;;;;;7.00;4.57;;;;;;;15.90;38.42;101575.41;4986087;28;20336;-75
2022/04/20 09:29:08;;;;;;;8.25;4.65;;;;;;;16.02;38.42;101570.91;4954081;29;20526;-75
2022/04/20 09:31:47;;;;;;;7.95;4.57;;;;;;;16.12;38.34;101566.47;4953535;29;20055;-75
2022/04/20 09:34:25;;;;;;;8.05;4.80;;;;;;;16.20;38.12;101553.38;4953265;29;20078;-75
2022/04/20 09:36:51;;;;;;;7.63;4.55;;;;;;;16.26;36.68;101566.13;4953691;28;20192;-75
2022/04/20 09:39:16;;;;;;;10.05;4.45;;;;;;;16.30;36.86;101556.91;4954126;29;20031;-75
2022/04/20 09:42:05;;;;;;;6.45;4.50;;;;;;;16.44;37.41;101552.22;4947265;29;20031;-75
2022/04/20 09:44:31;;;;;;;7.05;4.68;;;;;;;16.55;37.38;101562.75;4939573;29;20026;-75
2022/04/20 09:50:01;;;;;;;6.88;4.32;;;;;;;16.75;37.00;101545.91;4953044;29;20062;-75
2022/04/20 09:52:39;;;;;;;4.57;3.85;;;;;;;16.80;36.61;101551.66;4953411;28;20509;-73
2022/04/20 09:55:06;;;;;;;4.65;3.38;;;;;;;16.82;34.59;101560.34;4952216;28;20031;-76
2022/04/20 09:57:33;;;;;;;6.00;4.03;;;;;;;16.91;35.70;101553.38;4953252;28;20085;-76
2022/04/20 10:00:01;;;;;;;5.60;3.50;;;;;;;17.02;35.56;101555.06;4953270;28;20199;-74
2022/04/20 10:02:28;;;;;;;4.65;3.58;;;;;;;17.11;35.65;101549.75;4953969;29;20015;-76
2022/04/20 10:04:55;;;;;;;5.45;3.95;;;;;;;17.20;35.45;101548.06;4951835;29;20304;-76
2022/04/20 10:07:24;;;;;;;6.60;4.20;;;;;;;17.17;35.02;101533.22;4953783;28;20019;-76
2022/04/20 10:09:50;;;;;;;6.95;4.30;;;;;;;17.36;35.45;101524.44;4951759;29;20471;-76
2022/04/20 10:12:17;;;;;;;4.47;3.53;;;;;;;17.45;35.28;101531.56;4952465;28;20041;-75
2022/04/20 10:17:40;;;;;;;9.05;3.83;;;;;;;17.61;34.87;101531.00;4933793;29;20091;-76
2022/04/20 10:20:06;;;;;;;8.07;3.53;;;;;;;17.64;35.15;101524.56;4933968;29;20028;-75
2022/04/20 10:22:32;;;;;;;4.15;3.42;;;;;;;17.69;34.74;101532.97;4934404;29;20035;-76
2022/04/20 10:24:59;;;;;;;5.63;3.45;;;;;;;17.85;34.01;101522.56;4934038;29;20391;-74
2022/04/20 10:27:43;;;;;;;4.80;3.00;;;;;;;17.90;33.87;101520.31;4934515;29;20032;-74
2022/04/20 10:30:18;;;;;;;6.30;2.97;;;;;;;18.06;34.30;101517.88;4933335;29;20031;-74
2022/04/20 10:33:08;;;;;;;4.00;2.95;;;;;;;18.15;34.65;101517.00;4933538;29;20038;-74
2022/04/20 10:35:53;;;;;;;5.03;3.20;;;;;;;18.21;34.48;101523.56;4965218;28;20031;-74
2022/04/20 10:38:18;;;;;;;5.15;3.45;;;;;;;18.22;33.34;101527.06;4933781;29;20390;-74
2022/04/20 10:41:10;;;;;;;5.90;3.10;;;;;;;18.29;33.81;101515.69;4950077;29;20027;-74
2022/04/20 10:43:42;;;;;;;5.22;2.92;;;;;;;18.28;33.21;101519.31;4953318;28;20050;-74
2022/04/20 10:46:21;;;;;;;4.57;2.95;;;;;;;18.27;32.57;101516.81;4951233;29;20107;-74
2022/04/20 10:49:01;;;;;;;4.15;3.42;;;;;;;18.46;32.70;101511.41;4946335;29;20035;-75
2022/04/20 10:51:30;;;;;;;4.00;2.88;;;;;;;18.53;32.81;101504.50;4952774;29;20023;-75
2022/04/20 10:54:15;;;;;;;4.68;3.08;;;;;;;18.41;31.82;101513.66;4950666;29;20619;-75
2022/04/20 10:56:47;;;;;;;2.80;2.47;;;;;;;18.60;33.08;101513.56;4952125;29;20031;-75
2022/04/20 10:59:13;;;;;;;3.38;3.00;;;;;;;18.62;32.18;101503.63;4952036;29;20106;-74
2022/04/20 11:02:04;;;;;;;4.40;3.30;;;;;;;18.77;33.92;101498.59;4950784;29;20059;-74
2022/04/20 11:04:39;;;;;;;4.20;3.30;;;;;;;18.89;32.66;101493.91;4945210;28;20034;-74
2022/04/20 11:07:06;;;;;;;4.90;3.30;;;;;;;18.92;31.89;101482.94;4949504;28;20162;-75
2022/04/20 11:09:41;;;;;;;3.75;2.88;;;;;;;19.07;32.50;101478.75;4952243;28;20034;-75
2022/04/20 11:21:09;;;;;;;3.45;2.78;;;;;;;19.45;32.74;101476.72;4944970;29;20031;-74
2022/04/20 11:24:05;;;;;;;4.20;2.90;;;;;;;19.46;32.46;101467.72;4952172;29;20042;-74
2022/04/20 11:26:54;;;;;;;6.97;2.67;;;;;;;19.60;32.79;101470.66;4952216;28;20023;-74
2022/04/20 11:29:24;;;;;;;6.03;3.47;;;;;;;19.75;31.51;101470.13;4982523;28;20038;-74
2022/04/20 11:32:03;;;;;;;5.72;3.03;;;;;;;19.65;31.76;101462.22;4967044;28;20115;-74
2022/04/20 11:34:33;;;;;;;3.97;2.97;;;;;;;19.48;31.27;101460.38;4947599;29;20075;-74
2022/04/20 11:37:02;;;;;;;5.18;3.20;;;;;;;19.39;31.09;101457.66;4931329;29;20110;-74
2022/04/20 11:39:29;;;;;;;3.17;2.50;;;;;;;19.57;32.00;101460.31;4952167;29;20023;-74
2022/04/20 11:42:00;;;;;;;5.88;2.90;;;;;;;19.68;31.72;101456.56;4950412;29;20043;-74
2022/04/20 11:44:26;;;;;;;4.15;2.78;;;;;;;19.70;30.50;101455.41;4952157;29;20543;-74
2022/04/20 11:47:01;;;;;;;4.78;3.20;;;;;;;19.80;31.13;101444.59;4952251;28;20506;-74
2022/04/20 11:49:36;;;;;;;6.07;3.22;;;;;;;19.81;32.07;101451.63;4951541;28;20027;-74
2022/04/20 11:52:07;;;;;;;2.83;2.58;;;;;;;19.83;30.82;101438.94;4952320;28;20028;-75
2022/04/20 11:54:34;;;;;;;7.85;3.40;;;;;;;19.79;30.81;101447.44;4948201;29;20037;-74
2022/04/20 11:56:59;;;;;;;5.30;3.05;;;;;;;19.69;30.99;101444.88;4946470;29;20034;-76
2022/04/20 11:59:27;;;;;;;4.35;2.90;;;;;;;19.77;31.45;101438.75;4932017;29;20058;-76
2022/04/20 12:01:54;;;;;;;4.28;2.80;;;;;;;19.98;30.91;101434.66;4932258;29;20023;-76
2022/04/20 12:04:22;;;;;;;6.78;3.13;;;;;;;19.85;30.81;101431.59;4931808;29;20035;-75
2022/04/20 12:06:56;;;;;;;5.32;3.67;;;;;;;19.89;31.13;101427.63;4951413;28;20023;-76
2022/04/20 12:09:24;;;;;;;3.63;3.13;;;;;;;20.02;31.45;101414.69;4951141;29;20031;-76
2022/04/20 12:11:53;;;;;;;5.22;3.25;;;;;;;20.04;30.60;101419.84;4950682;28;20090;-76
2022/04/20 12:14:19;;;;;;;3.72;3.33;;;;;;;20.21;30.39;101423.41;4935199;28;20040;-76